sensor_id;sensor_type;location;lat;lon;timestamp;P1;durP1;ratioP1;P2;durP2;ratioP2
15307;SDS011;7755;52.208;6.964;2023-04-09T00:00:12;33.93;;;26.07;;
15307;SDS011;7755;52.208;6.964;2023-04-09T00:04:17;35.53;;;28.13;;
15307;SDS011;7755;52.208;6.964;2023-04-09T00:08:20;33.07;;;26.77;;
15307;SDS011;7755;52.208;6.964;2023-04-09T00:12:24;36.53;;;27.07;;
15307;SDS011;7755;52.208;6.964;2023-04-09T00:16:28;37.53;;;27.03;;
15307;SDS011;7755;52.208;6.964;2023-04-09T00:20:30;33.93;;;26.43;;
15307;SDS011;7755;52.208;6.964;2023-04-09T00:24:33;35.23;;;26.73;;
15307;SDS011;7755;52.208;6.964;2023-04-09T00:28:36;36.30;;;26.90;;
15307;SDS011;7755;52.208;6.964;2023-04-09T00:32:41;35.27;;;26.30;;
15307;SDS011;7755;52.208;6.964;2023-04-09T00:36:45;31.10;;;25.83;;
15307;SDS011;7755;52.208;6.964;2023-04-09T00:40:48;34.97;;;26.03;;
15307;SDS011;7755;52.208;6.964;2023-04-09T00:44:52;31.87;;;26.47;;
15307;SDS011;7755;52.208;6.964;2023-04-09T00:48:56;33.83;;;25.03;;
15307;SDS011;7755;52.208;6.964;2023-04-09T00:52:59;32.87;;;26.27;;
15307;SDS011;7755;52.208;6.964;2023-04-09T00:57:02;36.00;;;26.03;;
15307;SDS011;7755;52.208;6.964;2023-04-09T01:01:05;34.87;;;27.23;;
15307;SDS011;7755;52.208;6.964;2023-04-09T01:05:10;34.40;;;26.00;;
15307;SDS011;7755;52.208;6.964;2023-04-09T01:09:17;37.20;;;28.53;;
15307;SDS011;7755;52.208;6.964;2023-04-09T01:13:27;35.67;;;28.23;;
15307;SDS011;7755;52.208;6.964;2023-04-09T01:17:37;33.73;;;25.00;;
15307;SDS011;7755;52.208;6.964;2023-04-09T01:21:53;32.77;;;24.43;;
15307;SDS011;7755;52.208;6.964;2023-04-09T01:26:00;34.73;;;25.77;;
15307;SDS011;7755;52.208;6.964;2023-04-09T01:30:17;35.30;;;26.70;;
15307;SDS011;7755;52.208;6.964;2023-04-09T01:34:21;31.77;;;24.40;;
15307;SDS011;7755;52.208;6.964;2023-04-09T01:38:24;33.33;;;24.97;;
15307;SDS011;7755;52.208;6.964;2023-04-09T01:42:28;29.83;;;24.60;;
15307;SDS011;7755;52.208;6.964;2023-04-09T01:46:33;31.70;;;25.00;;
15307;SDS011;7755;52.208;6.964;2023-04-09T01:50:37;31.10;;;24.50;;
15307;SDS011;7755;52.208;6.964;2023-04-09T01:54:41;30.53;;;24.80;;
15307;SDS011;7755;52.208;6.964;2023-04-09T01:58:44;30.80;;;23.87;;
15307;SDS011;7755;52.208;6.964;2023-04-09T02:02:52;31.73;;;25.23;;
15307;SDS011;7755;52.208;6.964;2023-04-09T02:06:58;31.13;;;24.13;;
15307;SDS011;7755;52.208;6.964;2023-04-09T02:11:06;29.00;;;23.80;;
15307;SDS011;7755;52.208;6.964;2023-04-09T02:15:11;30.33;;;23.07;;
15307;SDS011;7755;52.208;6.964;2023-04-09T02:19:16;31.47;;;24.17;;
15307;SDS011;7755;52.208;6.964;2023-04-09T02:23:19;29.77;;;23.73;;
15307;SDS011;7755;52.208;6.964;2023-04-09T02:27:22;28.37;;;21.37;;
15307;SDS011;7755;52.208;6.964;2023-04-09T02:31:25;26.60;;;20.87;;
15307;SDS011;7755;52.208;6.964;2023-04-09T02:35:29;26.83;;;20.83;;
15307;SDS011;7755;52.208;6.964;2023-04-09T02:39:32;29.73;;;21.90;;
15307;SDS011;7755;52.208;6.964;2023-04-09T02:43:35;28.17;;;21.27;;
15307;SDS011;7755;52.208;6.964;2023-04-09T02:47:38;27.60;;;21.50;;
15307;SDS011;7755;52.208;6.964;2023-04-09T02:51:42;30.73;;;23.13;;
15307;SDS011;7755;52.208;6.964;2023-04-09T02:55:45;33.13;;;24.77;;
15307;SDS011;7755;52.208;6.964;2023-04-09T02:59:48;33.03;;;24.90;;
15307;SDS011;7755;52.208;6.964;2023-04-09T03:03:51;32.40;;;25.70;;
15307;SDS011;7755;52.208;6.964;2023-04-09T03:07:56;33.00;;;26.07;;
15307;SDS011;7755;52.208;6.964;2023-04-09T03:11:59;31.83;;;24.43;;
15307;SDS011;7755;52.208;6.964;2023-04-09T03:16:03;29.77;;;24.37;;
15307;SDS011;7755;52.208;6.964;2023-04-09T03:20:07;33.50;;;24.73;;
15307;SDS011;7755;52.208;6.964;2023-04-09T03:24:14;33.50;;;25.43;;
15307;SDS011;7755;52.208;6.964;2023-04-09T03:28:18;34.43;;;24.73;;
15307;SDS011;7755;52.208;6.964;2023-04-09T03:32:25;36.60;;;25.60;;
15307;SDS011;7755;52.208;6.964;2023-04-09T03:36:28;32.60;;;25.63;;
15307;SDS011;7755;52.208;6.964;2023-04-09T03:40:37;34.57;;;24.43;;
15307;SDS011;7755;52.208;6.964;2023-04-09T03:44:52;33.60;;;24.27;;
15307;SDS011;7755;52.208;6.964;2023-04-09T03:49:08;33.73;;;24.50;;
15307;SDS011;7755;52.208;6.964;2023-04-09T03:57:48;31.73;;;24.00;;
15307;SDS011;7755;52.208;6.964;2023-04-09T04:01:54;33.60;;;24.93;;
15307;SDS011;7755;52.208;6.964;2023-04-09T04:05:59;33.43;;;24.20;;
15307;SDS011;7755;52.208;6.964;2023-04-09T04:10:12;33.43;;;23.40;;
15307;SDS011;7755;52.208;6.964;2023-04-09T04:14:20;32.13;;;24.20;;
15307;SDS011;7755;52.208;6.964;2023-04-09T04:18:28;33.23;;;25.97;;
15307;SDS011;7755;52.208;6.964;2023-04-09T04:22:32;33.37;;;25.37;;
15307;SDS011;7755;52.208;6.964;2023-04-09T04:26:38;32.77;;;24.17;;
15307;SDS011;7755;52.208;6.964;2023-04-09T04:30:44;31.90;;;23.57;;
15307;SDS011;7755;52.208;6.964;2023-04-09T04:34:47;33.00;;;24.60;;
15307;SDS011;7755;52.208;6.964;2023-04-09T04:38:58;32.70;;;24.57;;
15307;SDS011;7755;52.208;6.964;2023-04-09T04:43:10;29.20;;;22.57;;
15307;SDS011;7755;52.208;6.964;2023-04-09T04:47:15;31.20;;;23.60;;
15307;SDS011;7755;52.208;6.964;2023-04-09T04:51:17;34.30;;;23.43;;
15307;SDS011;7755;52.208;6.964;2023-04-09T04:55:34;31.97;;;23.37;;
15307;SDS011;7755;52.208;6.964;2023-04-09T04:59:38;32.03;;;24.10;;
15307;SDS011;7755;52.208;6.964;2023-04-09T05:03:46;35.00;;;25.03;;
15307;SDS011;7755;52.208;6.964;2023-04-09T05:08:05;30.63;;;23.17;;
15307;SDS011;7755;52.208;6.964;2023-04-09T05:12:10;34.07;;;24.27;;
15307;SDS011;7755;52.208;6.964;2023-04-09T05:16:16;33.40;;;24.30;;
15307;SDS011;7755;52.208;6.964;2023-04-09T05:20:25;34.80;;;23.57;;
15307;SDS011;7755;52.208;6.964;2023-04-09T05:24:38;36.17;;;25.67;;
15307;SDS011;7755;52.208;6.964;2023-04-09T05:28:42;35.70;;;26.00;;
15307;SDS011;7755;52.208;6.964;2023-04-09T05:32:51;35.50;;;25.10;;
15307;SDS011;7755;52.208;6.964;2023-04-09T05:36:59;33.93;;;26.30;;
15307;SDS011;7755;52.208;6.964;2023-04-09T05:41:02;33.37;;;23.97;;
15307;SDS011;7755;52.208;6.964;2023-04-09T05:45:09;34.73;;;23.43;;
15307;SDS011;7755;52.208;6.964;2023-04-09T05:49:20;39.03;;;27.60;;
15307;SDS011;7755;52.208;6.964;2023-04-09T05:53:27;40.53;;;27.50;;
15307;SDS011;7755;52.208;6.964;2023-04-09T05:57:32;38.50;;;28.37;;
15307;SDS011;7755;52.208;6.964;2023-04-09T06:01:37;43.50;;;30.47;;
15307;SDS011;7755;52.208;6.964;2023-04-09T06:05:40;43.27;;;29.70;;
15307;SDS011;7755;52.208;6.964;2023-04-09T06:09:46;41.00;;;29.80;;
15307;SDS011;7755;52.208;6.964;2023-04-09T06:13:49;42.57;;;30.80;;
15307;SDS011;7755;52.208;6.964;2023-04-09T06:17:53;44.93;;;32.77;;
15307;SDS011;7755;52.208;6.964;2023-04-09T06:21:59;49.03;;;33.40;;
15307;SDS011;7755;52.208;6.964;2023-04-09T06:26:04;44.57;;;31.87;;
15307;SDS011;7755;52.208;6.964;2023-04-09T06:30:08;44.43;;;31.60;;
15307;SDS011;7755;52.208;6.964;2023-04-09T06:34:12;45.13;;;32.80;;
15307;SDS011;7755;52.208;6.964;2023-04-09T06:38:16;42.57;;;30.97;;
15307;SDS011;7755;52.208;6.964;2023-04-09T06:42:21;45.23;;;31.83;;
15307;SDS011;7755;52.208;6.964;2023-04-09T06:46:49;49.57;;;33.57;;
15307;SDS011;7755;52.208;6.964;2023-04-09T06:50:52;45.83;;;31.27;;
15307;SDS011;7755;52.208;6.964;2023-04-09T06:54:59;51.17;;;34.80;;
15307;SDS011;7755;52.208;6.964;2023-04-09T06:59:04;45.30;;;33.17;;
15307;SDS011;7755;52.208;6.964;2023-04-09T07:03:07;49.47;;;33.60;;
15307;SDS011;7755;52.208;6.964;2023-04-09T07:07:10;45.87;;;33.80;;
15307;SDS011;7755;52.208;6.964;2023-04-09T07:11:13;44.83;;;32.93;;
15307;SDS011;7755;52.208;6.964;2023-04-09T07:15:18;45.93;;;33.40;;
15307;SDS011;7755;52.208;6.964;2023-04-09T07:19:21;39.57;;;30.40;;
15307;SDS011;7755;52.208;6.964;2023-04-09T07:23:24;46.93;;;32.93;;
15307;SDS011;7755;52.208;6.964;2023-04-09T07:27:27;38.93;;;29.50;;
15307;SDS011;7755;52.208;6.964;2023-04-09T07:31:32;43.23;;;32.03;;
15307;SDS011;7755;52.208;6.964;2023-04-09T07:35:36;44.60;;;31.60;;
15307;SDS011;7755;52.208;6.964;2023-04-09T07:39:39;41.60;;;30.73;;
15307;SDS011;7755;52.208;6.964;2023-04-09T07:43:42;44.13;;;31.97;;
15307;SDS011;7755;52.208;6.964;2023-04-09T07:47:46;41.07;;;31.97;;
15307;SDS011;7755;52.208;6.964;2023-04-09T07:51:49;40.77;;;31.10;;
15307;SDS011;7755;52.208;6.964;2023-04-09T07:55:52;37.43;;;28.57;;
15307;SDS011;7755;52.208;6.964;2023-04-09T07:59:55;38.43;;;30.10;;
15307;SDS011;7755;52.208;6.964;2023-04-09T08:04:00;37.53;;;29.90;;
15307;SDS011;7755;52.208;6.964;2023-04-09T08:08:03;36.37;;;27.47;;
15307;SDS011;7755;52.208;6.964;2023-04-09T08:12:06;36.50;;;29.47;;
15307;SDS011;7755;52.208;6.964;2023-04-09T08:16:09;33.73;;;28.07;;
15307;SDS011;7755;52.208;6.964;2023-04-09T08:20:13;35.33;;;29.23;;
15307;SDS011;7755;52.208;6.964;2023-04-09T08:24:17;33.03;;;27.07;;
15307;SDS011;7755;52.208;6.964;2023-04-09T08:28:20;33.70;;;27.47;;
15307;SDS011;7755;52.208;6.964;2023-04-09T08:32:23;33.70;;;25.47;;
15307;SDS011;7755;52.208;6.964;2023-04-09T08:36:27;30.93;;;24.27;;
15307;SDS011;7755;52.208;6.964;2023-04-09T08:40:33;28.50;;;24.70;;
15307;SDS011;7755;52.208;6.964;2023-04-09T08:44:36;32.03;;;24.47;;
15307;SDS011;7755;52.208;6.964;2023-04-09T08:48:38;25.77;;;22.80;;
15307;SDS011;7755;52.208;6.964;2023-04-09T08:52:46;29.53;;;24.47;;
15307;SDS011;7755;52.208;6.964;2023-04-09T08:56:49;31.47;;;25.23;;
15307;SDS011;7755;52.208;6.964;2023-04-09T09:00:52;26.17;;;22.30;;
15307;SDS011;7755;52.208;6.964;2023-04-09T09:04:54;21.20;;;18.80;;
15307;SDS011;7755;52.208;6.964;2023-04-09T09:09:03;20.17;;;17.70;;
15307;SDS011;7755;52.208;6.964;2023-04-09T09:13:17;23.67;;;17.80;;
15307;SDS011;7755;52.208;6.964;2023-04-09T09:17:23;19.83;;;17.53;;
15307;SDS011;7755;52.208;6.964;2023-04-09T09:21:27;17.77;;;15.87;;
15307;SDS011;7755;52.208;6.964;2023-04-09T09:25:33;15.97;;;14.27;;
15307;SDS011;7755;52.208;6.964;2023-04-09T09:29:40;14.33;;;12.83;;
15307;SDS011;7755;52.208;6.964;2023-04-09T09:33:45;15.53;;;13.83;;
15307;SDS011;7755;52.208;6.964;2023-04-09T09:37:56;15.90;;;14.03;;
15307;SDS011;7755;52.208;6.964;2023-04-09T09:42:06;15.10;;;13.07;;
15307;SDS011;7755;52.208;6.964;2023-04-09T09:46:10;15.60;;;13.17;;
15307;SDS011;7755;52.208;6.964;2023-04-09T09:50:13;13.17;;;11.87;;
15307;SDS011;7755;52.208;6.964;2023-04-09T09:54:16;12.90;;;11.60;;
15307;SDS011;7755;52.208;6.964;2023-04-09T09:58:26;13.13;;;11.70;;
15307;SDS011;7755;52.208;6.964;2023-04-09T10:02:38;13.73;;;12.30;;
15307;SDS011;7755;52.208;6.964;2023-04-09T10:06:45;12.30;;;11.10;;
15307;SDS011;7755;52.208;6.964;2023-04-09T10:10:51;12.97;;;11.67;;
15307;SDS011;7755;52.208;6.964;2023-04-09T10:14:55;13.37;;;11.97;;
15307;SDS011;7755;52.208;6.964;2023-04-09T10:19:04;12.53;;;11.27;;
15307;SDS011;7755;52.208;6.964;2023-04-09T10:23:10;12.43;;;11.13;;
15307;SDS011;7755;52.208;6.964;2023-04-09T10:27:20;12.27;;;10.93;;
15307;SDS011;7755;52.208;6.964;2023-04-09T10:31:25;11.00;;;9.90;;
15307;SDS011;7755;52.208;6.964;2023-04-09T10:35:28;10.97;;;9.77;;
15307;SDS011;7755;52.208;6.964;2023-04-09T10:39:31;11.73;;;10.57;;
15307;SDS011;7755;52.208;6.964;2023-04-09T10:43:35;11.13;;;9.93;;
15307;SDS011;7755;52.208;6.964;2023-04-09T10:47:40;10.83;;;9.70;;
15307;SDS011;7755;52.208;6.964;2023-04-09T10:51:47;11.67;;;9.80;;
15307;SDS011;7755;52.208;6.964;2023-04-09T10:55:52;12.17;;;10.33;;
15307;SDS011;7755;52.208;6.964;2023-04-09T10:59:56;11.57;;;9.83;;
15307;SDS011;7755;52.208;6.964;2023-04-09T11:04:07;11.07;;;9.87;;
15307;SDS011;7755;52.208;6.964;2023-04-09T11:08:17;14.13;;;11.80;;
15307;SDS011;7755;52.208;6.964;2023-04-09T11:12:22;11.23;;;9.57;;
15307;SDS011;7755;52.208;6.964;2023-04-09T11:16:25;11.63;;;10.43;;
15307;SDS011;7755;52.208;6.964;2023-04-09T11:20:32;11.77;;;10.47;;
15307;SDS011;7755;52.208;6.964;2023-04-09T11:24:41;11.57;;;10.37;;
15307;SDS011;7755;52.208;6.964;2023-04-09T11:28:46;12.87;;;11.07;;
15307;SDS011;7755;52.208;6.964;2023-04-09T11:32:48;11.53;;;10.30;;
15307;SDS011;7755;52.208;6.964;2023-04-09T11:36:53;12.27;;;10.70;;
15307;SDS011;7755;52.208;6.964;2023-04-09T11:40:57;11.63;;;10.43;;
15307;SDS011;7755;52.208;6.964;2023-04-09T11:45:01;11.13;;;9.93;;
15307;SDS011;7755;52.208;6.964;2023-04-09T11:49:05;10.80;;;9.63;;
15307;SDS011;7755;52.208;6.964;2023-04-09T11:53:20;12.53;;;10.53;;
15307;SDS011;7755;52.208;6.964;2023-04-09T11:57:24;11.07;;;9.97;;
15307;SDS011;7755;52.208;6.964;2023-04-09T12:01:29;11.67;;;10.47;;
15307;SDS011;7755;52.208;6.964;2023-04-09T12:05:33;9.67;;;8.67;;
15307;SDS011;7755;52.208;6.964;2023-04-09T12:09:46;11.40;;;9.97;;
15307;SDS011;7755;52.208;6.964;2023-04-09T12:13:57;11.10;;;10.00;;
15307;SDS011;7755;52.208;6.964;2023-04-09T12:18:00;11.47;;;10.10;;
15307;SDS011;7755;52.208;6.964;2023-04-09T12:22:04;12.13;;;10.40;;
15307;SDS011;7755;52.208;6.964;2023-04-09T12:26:08;10.97;;;9.87;;
15307;SDS011;7755;52.208;6.964;2023-04-09T12:30:29;10.57;;;9.53;;
15307;SDS011;7755;52.208;6.964;2023-04-09T12:34:32;10.60;;;9.30;;
15307;SDS011;7755;52.208;6.964;2023-04-09T12:38:36;11.93;;;10.73;;
15307;SDS011;7755;52.208;6.964;2023-04-09T12:42:40;11.97;;;10.77;;
15307;SDS011;7755;52.208;6.964;2023-04-09T12:46:43;13.67;;;11.57;;
15307;SDS011;7755;52.208;6.964;2023-04-09T12:50:46;13.30;;;11.87;;
15307;SDS011;7755;52.208;6.964;2023-04-09T12:54:48;11.90;;;10.73;;
15307;SDS011;7755;52.208;6.964;2023-04-09T12:58:53;12.77;;;11.47;;
15307;SDS011;7755;52.208;6.964;2023-04-09T13:02:55;43.60;;;14.17;;
15307;SDS011;7755;52.208;6.964;2023-04-09T13:06:58;14.50;;;11.23;;
15307;SDS011;7755;52.208;6.964;2023-04-09T13:11:01;13.60;;;11.93;;
15307;SDS011;7755;52.208;6.964;2023-04-09T13:15:06;11.20;;;9.90;;
15307;SDS011;7755;52.208;6.964;2023-04-09T13:19:12;11.47;;;10.00;;
15307;SDS011;7755;52.208;6.964;2023-04-09T13:23:15;12.13;;;10.80;;
15307;SDS011;7755;52.208;6.964;2023-04-09T13:27:18;11.67;;;10.40;;
15307;SDS011;7755;52.208;6.964;2023-04-09T13:31:22;11.13;;;10.13;;
15307;SDS011;7755;52.208;6.964;2023-04-09T13:35:26;11.53;;;10.33;;
15307;SDS011;7755;52.208;6.964;2023-04-09T13:39:29;13.23;;;11.83;;
15307;SDS011;7755;52.208;6.964;2023-04-09T13:43:32;10.47;;;9.37;;
15307;SDS011;7755;52.208;6.964;2023-04-09T13:47:36;12.00;;;10.80;;
15307;SDS011;7755;52.208;6.964;2023-04-09T13:51:39;9.57;;;8.63;;
15307;SDS011;7755;52.208;6.964;2023-04-09T13:55:41;11.07;;;10.07;;
15307;SDS011;7755;52.208;6.964;2023-04-09T13:59:45;15.57;;;11.10;;
15307;SDS011;7755;52.208;6.964;2023-04-09T14:03:49;12.23;;;10.97;;
15307;SDS011;7755;52.208;6.964;2023-04-09T14:07:53;10.73;;;9.63;;
15307;SDS011;7755;52.208;6.964;2023-04-09T14:11:55;12.87;;;11.00;;
15307;SDS011;7755;52.208;6.964;2023-04-09T14:15:58;11.53;;;10.33;;
15307;SDS011;7755;52.208;6.964;2023-04-09T14:20:05;11.47;;;10.20;;
15307;SDS011;7755;52.208;6.964;2023-04-09T14:24:08;12.23;;;11.03;;
15307;SDS011;7755;52.208;6.964;2023-04-09T14:28:13;12.27;;;11.07;;
15307;SDS011;7755;52.208;6.964;2023-04-09T14:32:16;12.60;;;11.07;;
15307;SDS011;7755;52.208;6.964;2023-04-09T14:36:20;11.30;;;10.03;;
15307;SDS011;7755;52.208;6.964;2023-04-09T14:40:23;11.70;;;10.40;;
15307;SDS011;7755;52.208;6.964;2023-04-09T14:44:26;11.17;;;10.07;;
15307;SDS011;7755;52.208;6.964;2023-04-09T14:48:29;11.83;;;10.63;;
15307;SDS011;7755;52.208;6.964;2023-04-09T14:52:33;14.37;;;11.20;;
15307;SDS011;7755;52.208;6.964;2023-04-09T14:56:36;11.90;;;10.07;;
15307;SDS011;7755;52.208;6.964;2023-04-09T15:00:39;12.37;;;11.17;;
15307;SDS011;7755;52.208;6.964;2023-04-09T15:04:45;12.00;;;10.80;;
15307;SDS011;7755;52.208;6.964;2023-04-09T15:08:49;12.07;;;10.77;;
15307;SDS011;7755;52.208;6.964;2023-04-09T15:12:52;11.97;;;10.83;;
15307;SDS011;7755;52.208;6.964;2023-04-09T15:16:55;13.57;;;12.17;;
15307;SDS011;7755;52.208;6.964;2023-04-09T15:20:59;12.67;;;10.93;;
15307;SDS011;7755;52.208;6.964;2023-04-09T15:25:03;12.27;;;11.00;;
15307;SDS011;7755;52.208;6.964;2023-04-09T15:29:08;13.63;;;12.13;;
15307;SDS011;7755;52.208;6.964;2023-04-09T15:33:12;12.23;;;10.93;;
15307;SDS011;7755;52.208;6.964;2023-04-09T15:37:15;13.30;;;11.67;;
15307;SDS011;7755;52.208;6.964;2023-04-09T15:41:19;12.10;;;10.53;;
15307;SDS011;7755;52.208;6.964;2023-04-09T15:45:25;11.70;;;10.50;;
15307;SDS011;7755;52.208;6.964;2023-04-09T15:49:28;12.73;;;11.37;;
15307;SDS011;7755;52.208;6.964;2023-04-09T15:53:31;13.03;;;10.90;;
15307;SDS011;7755;52.208;6.964;2023-04-09T15:57:37;11.63;;;10.53;;
15307;SDS011;7755;52.208;6.964;2023-04-09T16:01:40;11.77;;;10.57;;
15307;SDS011;7755;52.208;6.964;2023-04-09T16:05:43;13.03;;;11.60;;
15307;SDS011;7755;52.208;6.964;2023-04-09T16:09:47;13.33;;;11.87;;
15307;SDS011;7755;52.208;6.964;2023-04-09T16:13:51;11.77;;;10.57;;
15307;SDS011;7755;52.208;6.964;2023-04-09T16:17:56;12.93;;;11.60;;
15307;SDS011;7755;52.208;6.964;2023-04-09T16:21:59;11.93;;;10.77;;
15307;SDS011;7755;52.208;6.964;2023-04-09T16:26:03;12.47;;;11.10;;
15307;SDS011;7755;52.208;6.964;2023-04-09T16:30:10;11.83;;;10.63;;
15307;SDS011;7755;52.208;6.964;2023-04-09T16:34:15;11.97;;;10.73;;
15307;SDS011;7755;52.208;6.964;2023-04-09T16:38:18;12.60;;;11.30;;
15307;SDS011;7755;52.208;6.964;2023-04-09T16:42:24;12.40;;;11.17;;
15307;SDS011;7755;52.208;6.964;2023-04-09T16:46:28;11.87;;;10.27;;
15307;SDS011;7755;52.208;6.964;2023-04-09T16:50:32;11.30;;;10.20;;
15307;SDS011;7755;52.208;6.964;2023-04-09T16:54:35;12.50;;;11.20;;
15307;SDS011;7755;52.208;6.964;2023-04-09T16:58:38;13.57;;;12.23;;
15307;SDS011;7755;52.208;6.964;2023-04-09T17:02:42;13.33;;;11.60;;
15307;SDS011;7755;52.208;6.964;2023-04-09T17:06:46;13.70;;;11.87;;
15307;SDS011;7755;52.208;6.964;2023-04-09T17:10:49;13.50;;;12.10;;
15307;SDS011;7755;52.208;6.964;2023-04-09T17:14:55;15.17;;;13.03;;
15307;SDS011;7755;52.208;6.964;2023-04-09T17:19:00;13.20;;;11.90;;
15307;SDS011;7755;52.208;6.964;2023-04-09T17:23:03;14.80;;;13.17;;
15307;SDS011;7755;52.208;6.964;2023-04-09T17:27:07;15.63;;;14.10;;
15307;SDS011;7755;52.208;6.964;2023-04-09T17:31:12;19.83;;;17.67;;
15307;SDS011;7755;52.208;6.964;2023-04-09T17:35:18;19.20;;;17.27;;
15307;SDS011;7755;52.208;6.964;2023-04-09T17:39:22;16.87;;;15.17;;
15307;SDS011;7755;52.208;6.964;2023-04-09T17:43:25;17.23;;;15.43;;
15307;SDS011;7755;52.208;6.964;2023-04-09T17:47:28;16.63;;;15.03;;
15307;SDS011;7755;52.208;6.964;2023-04-09T17:51:35;16.40;;;14.60;;
15307;SDS011;7755;52.208;6.964;2023-04-09T17:55:43;18.07;;;16.17;;
15307;SDS011;7755;52.208;6.964;2023-04-09T17:59:47;15.97;;;14.27;;
15307;SDS011;7755;52.208;6.964;2023-04-09T18:03:51;15.47;;;13.87;;
15307;SDS011;7755;52.208;6.964;2023-04-09T18:07:56;16.70;;;14.97;;
15307;SDS011;7755;52.208;6.964;2023-04-09T18:12:00;18.33;;;15.73;;
15307;SDS011;7755;52.208;6.964;2023-04-09T18:20:25;16.63;;;14.87;;
15307;SDS011;7755;52.208;6.964;2023-04-09T18:24:32;18.50;;;16.50;;
15307;SDS011;7755;52.208;6.964;2023-04-09T18:28:47;20.10;;;17.20;;
15307;SDS011;7755;52.208;6.964;2023-04-09T18:32:51;20.33;;;18.20;;
15307;SDS011;7755;52.208;6.964;2023-04-09T18:36:55;22.73;;;20.40;;
15307;SDS011;7755;52.208;6.964;2023-04-09T18:40:59;27.07;;;23.93;;
15307;SDS011;7755;52.208;6.964;2023-04-09T18:45:05;28.03;;;23.00;;
15307;SDS011;7755;52.208;6.964;2023-04-09T18:49:10;26.60;;;23.80;;
15307;SDS011;7755;52.208;6.964;2023-04-09T18:57:50;37.53;;;29.27;;
15307;SDS011;7755;52.208;6.964;2023-04-09T19:01:53;34.37;;;29.43;;
15307;SDS011;7755;52.208;6.964;2023-04-09T19:05:57;36.57;;;27.97;;
15307;SDS011;7755;52.208;6.964;2023-04-09T19:10:00;32.03;;;27.43;;
15307;SDS011;7755;52.208;6.964;2023-04-09T19:14:05;34.97;;;30.13;;
15307;SDS011;7755;52.208;6.964;2023-04-09T19:18:08;36.93;;;31.03;;
15307;SDS011;7755;52.208;6.964;2023-04-09T19:22:12;38.33;;;32.30;;
15307;SDS011;7755;52.208;6.964;2023-04-09T19:26:15;44.27;;;36.40;;
15307;SDS011;7755;52.208;6.964;2023-04-09T19:30:20;44.23;;;36.13;;
15307;SDS011;7755;52.208;6.964;2023-04-09T19:34:23;41.77;;;37.23;;
15307;SDS011;7755;52.208;6.964;2023-04-09T19:38:26;41.93;;;35.93;;
15307;SDS011;7755;52.208;6.964;2023-04-09T19:42:29;45.77;;;37.83;;
15307;SDS011;7755;52.208;6.964;2023-04-09T19:46:35;46.20;;;39.60;;
15307;SDS011;7755;52.208;6.964;2023-04-09T19:50:40;48.20;;;40.53;;
15307;SDS011;7755;52.208;6.964;2023-04-09T19:54:45;58.73;;;48.83;;
15307;SDS011;7755;52.208;6.964;2023-04-09T19:58:47;60.37;;;48.73;;
15307;SDS011;7755;52.208;6.964;2023-04-09T20:02:52;59.33;;;51.13;;
15307;SDS011;7755;52.208;6.964;2023-04-09T20:06:55;61.63;;;52.47;;
15307;SDS011;7755;52.208;6.964;2023-04-09T20:10:59;63.73;;;51.63;;
15307;SDS011;7755;52.208;6.964;2023-04-09T20:15:03;65.07;;;52.90;;
15307;SDS011;7755;52.208;6.964;2023-04-09T20:19:12;67.77;;;56.47;;
15307;SDS011;7755;52.208;6.964;2023-04-09T20:23:15;68.97;;;58.63;;
15307;SDS011;7755;52.208;6.964;2023-04-09T20:27:18;77.40;;;63.93;;
15307;SDS011;7755;52.208;6.964;2023-04-09T20:31:23;78.83;;;65.83;;
15307;SDS011;7755;52.208;6.964;2023-04-09T20:35:32;82.23;;;66.27;;
15307;SDS011;7755;52.208;6.964;2023-04-09T20:39:35;77.83;;;65.33;;
15307;SDS011;7755;52.208;6.964;2023-04-09T20:43:44;83.57;;;69.27;;
15307;SDS011;7755;52.208;6.964;2023-04-09T20:47:48;81.10;;;68.67;;
15307;SDS011;7755;52.208;6.964;2023-04-09T20:51:54;79.37;;;67.53;;
15307;SDS011;7755;52.208;6.964;2023-04-09T20:55:57;78.07;;;66.80;;
15307;SDS011;7755;52.208;6.964;2023-04-09T21:00:02;76.50;;;65.40;;
15307;SDS011;7755;52.208;6.964;2023-04-09T21:04:06;83.77;;;64.60;;
15307;SDS011;7755;52.208;6.964;2023-04-09T21:08:11;72.43;;;63.30;;
15307;SDS011;7755;52.208;6.964;2023-04-09T21:12:16;75.57;;;63.87;;
15307;SDS011;7755;52.208;6.964;2023-04-09T21:16:24;74.07;;;61.23;;
15307;SDS011;7755;52.208;6.964;2023-04-09T21:20:29;69.97;;;59.50;;
15307;SDS011;7755;52.208;6.964;2023-04-09T21:24:33;67.07;;;56.20;;
15307;SDS011;7755;52.208;6.964;2023-04-09T21:28:36;63.27;;;56.40;;
15307;SDS011;7755;52.208;6.964;2023-04-09T21:36:55;65.50;;;57.17;;
15307;SDS011;7755;52.208;6.964;2023-04-09T21:41:00;65.80;;;57.60;;
15307;SDS011;7755;52.208;6.964;2023-04-09T21:45:03;67.20;;;57.27;;
15307;SDS011;7755;52.208;6.964;2023-04-09T21:49:07;67.67;;;55.50;;
15307;SDS011;7755;52.208;6.964;2023-04-09T21:53:10;66.93;;;57.60;;
15307;SDS011;7755;52.208;6.964;2023-04-09T21:57:15;62.27;;;54.13;;
15307;SDS011;7755;52.208;6.964;2023-04-09T22:01:18;63.77;;;55.53;;
15307;SDS011;7755;52.208;6.964;2023-04-09T22:05:30;58.97;;;52.53;;
15307;SDS011;7755;52.208;6.964;2023-04-09T22:09:34;62.33;;;53.77;;
15307;SDS011;7755;52.208;6.964;2023-04-09T22:13:39;65.67;;;55.10;;
15307;SDS011;7755;52.208;6.964;2023-04-09T22:17:42;61.43;;;54.73;;
15307;SDS011;7755;52.208;6.964;2023-04-09T22:21:45;68.47;;;56.20;;
15307;SDS011;7755;52.208;6.964;2023-04-09T22:25:57;61.40;;;54.77;;
15307;SDS011;7755;52.208;6.964;2023-04-09T22:30:02;60.87;;;52.83;;
15307;SDS011;7755;52.208;6.964;2023-04-09T22:34:05;59.83;;;53.13;;
15307;SDS011;7755;52.208;6.964;2023-04-09T22:38:22;63.13;;;56.23;;
15307;SDS011;7755;52.208;6.964;2023-04-09T22:42:25;66.70;;;57.43;;
15307;SDS011;7755;52.208;6.964;2023-04-09T22:46:29;64.77;;;56.77;;
15307;SDS011;7755;52.208;6.964;2023-04-09T22:50:33;64.40;;;56.30;;
15307;SDS011;7755;52.208;6.964;2023-04-09T22:54:36;67.33;;;56.60;;
15307;SDS011;7755;52.208;6.964;2023-04-09T22:58:39;68.40;;;59.77;;
15307;SDS011;7755;52.208;6.964;2023-04-09T23:02:43;65.17;;;57.90;;
15307;SDS011;7755;52.208;6.964;2023-04-09T23:06:51;62.50;;;55.63;;
15307;SDS011;7755;52.208;6.964;2023-04-09T23:10:54;64.87;;;55.67;;
15307;SDS011;7755;52.208;6.964;2023-04-09T23:14:58;61.53;;;53.77;;
15307;SDS011;7755;52.208;6.964;2023-04-09T23:19:02;61.17;;;54.70;;
15307;SDS011;7755;52.208;6.964;2023-04-09T23:23:05;64.00;;;54.57;;
15307;SDS011;7755;52.208;6.964;2023-04-09T23:27:08;67.37;;;60.00;;
15307;SDS011;7755;52.208;6.964;2023-04-09T23:31:11;66.33;;;55.80;;
15307;SDS011;7755;52.208;6.964;2023-04-09T23:35:15;61.87;;;53.93;;
15307;SDS011;7755;52.208;6.964;2023-04-09T23:39:18;60.67;;;53.97;;
15307;SDS011;7755;52.208;6.964;2023-04-09T23:43:21;66.30;;;57.83;;
15307;SDS011;7755;52.208;6.964;2023-04-09T23:47:24;63.60;;;55.13;;
15307;SDS011;7755;52.208;6.964;2023-04-09T23:51:29;65.70;;;56.70;;
15307;SDS011;7755;52.208;6.964;2023-04-09T23:55:32;62.57;;;53.57;;
15307;SDS011;7755;52.208;6.964;2023-04-09T23:59:38;63.57;;;55.23;;
